RPVY weather

Catbalogan Airport
Western Samar Province, Philippines

Public forecast

Using degrees Celsius for public forecast. Weather courtesy of forecast.io.

Closest aviation weather report (METAR) to Catbalogan Airport

Report is more than 6 hours old.

Closest report is Calbayog Airport, 23.0 nm (42.6 km) NW. Retrieved 2009/10/20 08:00 UTC (10 years ago):

RPVC 200800Z 35005KT 320V030 9999 FEW020 SCT036 BKN270 31/22 Q1009 A2980

Closest aviation forecast (TAF) to Catbalogan Airport

Forecast is more than 12 hours old.

Closest forecast is Calbayog Airport, 23.0 nm (42.6 km) NW. Retrieved 2019/03/31 12:00 UTC (9 months ago):

TAF RPVC 311100Z 3112/0112 09006KT 9999 FEW019 TEMPO 3112/3118 27004KT